createdAt,value
2022-10-14T00:00:34.988Z,75.00
2022-10-14T00:03:01.591Z,75.25
2022-10-14T00:05:28.482Z,75.25
2022-10-14T00:07:55.067Z,75.57
2022-10-14T00:10:21.752Z,75.25
2022-10-14T00:12:48.480Z,75.21
2022-10-14T00:15:15.010Z,74.99
2022-10-14T00:17:41.818Z,75.13
2022-10-14T00:20:08.960Z,75.41
2022-10-14T00:22:35.648Z,75.38
2022-10-14T00:25:02.180Z,76.03
2022-10-14T00:27:29.564Z,76.33
2022-10-14T00:29:56.077Z,76.58
2022-10-14T00:32:22.762Z,76.76
2022-10-14T00:34:52.168Z,76.65
2022-10-14T00:37:19.422Z,76.83
2022-10-14T00:39:46.378Z,76.92
2022-10-14T00:42:14.407Z,76.78
2022-10-14T00:45:03.683Z,77.47
2022-10-14T00:47:31.071Z,77.81
2022-10-14T00:49:59.908Z,78.26
2022-10-14T00:52:29.817Z,78.67
2022-10-14T00:55:06.520Z,78.69
2022-10-14T00:57:35.131Z,78.74
2022-10-14T01:00:08.618Z,78.88
2022-10-14T01:02:35.799Z,78.83
2022-10-14T01:05:03.289Z,78.70
2022-10-14T01:07:43.651Z,78.58
2022-10-14T01:10:20.188Z,78.43
2022-10-14T01:13:24.988Z,78.53
2022-10-14T01:15:57.337Z,78.17
2022-10-14T01:18:33.063Z,78.71
2022-10-14T01:21:20.243Z,78.85
2022-10-14T01:24:16.959Z,79.05
2022-10-14T01:27:10.457Z,79.34
2022-10-14T01:29:43.842Z,79.63
2022-10-14T01:32:14.617Z,79.96
2022-10-14T01:34:49.712Z,79.69
2022-10-14T01:37:21.697Z,79.53
2022-10-14T01:39:54.027Z,79.70
2022-10-14T01:42:25.816Z,79.84
2022-10-14T01:44:57.706Z,79.63
2022-10-14T01:47:27.363Z,79.20
2022-10-14T01:50:00.485Z,79.34
2022-10-14T01:52:31.093Z,79.34
2022-10-14T01:55:03.195Z,80.79
2022-10-14T01:57:35.358Z,80.91
2022-10-14T02:00:05.005Z,80.44
2022-10-14T02:02:41.559Z,80.86
2022-10-14T02:05:24.215Z,80.95
2022-10-14T02:07:58.405Z,79.85
2022-10-14T02:10:41.687Z,80.19
2022-10-14T02:13:17.531Z,80.98
2022-10-14T02:15:50.414Z,80.44
2022-10-14T02:18:44.974Z,80.32
2022-10-14T02:21:51.905Z,80.34
2022-10-14T02:24:20.593Z,79.68
2022-10-14T02:26:49.863Z,80.30
2022-10-14T02:29:19.769Z,80.13
2022-10-14T02:31:48.094Z,80.54
2022-10-14T02:34:19.206Z,81.41
2022-10-14T02:36:47.642Z,82.82
2022-10-14T02:39:20.723Z,82.78
2022-10-14T02:41:47.540Z,83.07
2022-10-14T02:44:14.243Z,81.68
2022-10-14T02:46:40.903Z,81.72
2022-10-14T02:49:09.526Z,80.94
2022-10-14T02:51:36.304Z,80.58
2022-10-14T02:54:02.897Z,79.86
2022-10-14T02:56:29.487Z,78.98
2022-10-14T02:58:59.414Z,79.27
2022-10-14T03:01:26.385Z,79.88
2022-10-14T03:03:53.693Z,79.62
2022-10-14T03:06:23.440Z,79.68
2022-10-14T03:08:50.465Z,78.81
2022-10-14T03:11:17.147Z,78.85
2022-10-14T03:13:44.237Z,78.46
2022-10-14T03:16:11.604Z,78.70
2022-10-14T03:18:42.642Z,78.66
2022-10-14T03:21:19.153Z,78.90
2022-10-14T03:23:45.873Z,78.54
2022-10-14T03:26:14.119Z,78.38
2022-10-14T03:28:45.419Z,78.28
2022-10-14T03:31:26.638Z,77.95
2022-10-14T03:34:10.764Z,78.66
2022-10-14T03:36:39.503Z,78.21
2022-10-14T03:39:06.385Z,78.49
2022-10-14T03:41:59.074Z,77.81
2022-10-14T03:44:33.109Z,77.20
2022-10-14T03:47:25.626Z,76.96
2022-10-14T03:49:52.197Z,76.46
2022-10-14T03:52:34.188Z,76.15
2022-10-14T03:55:12.761Z,75.98
2022-10-14T03:57:41.916Z,75.90
2022-10-14T04:00:10.249Z,75.72
2022-10-14T04:02:43.045Z,75.75
2022-10-14T04:05:48.334Z,76.63
2022-10-14T04:08:18.848Z,76.47
2022-10-14T04:10:56.317Z,76.35
2022-10-14T04:13:25.108Z,76.04
2022-10-14T04:15:52.006Z,76.12
2022-10-14T04:18:34.072Z,75.91
2022-10-14T04:21:08.773Z,75.88
2022-10-14T04:23:37.196Z,76.24
2022-10-14T04:26:12.017Z,76.61
2022-10-14T04:28:39.556Z,76.90
2022-10-14T04:31:28.951Z,77.19
2022-10-14T04:34:00.834Z,76.95
2022-10-14T04:36:33.355Z,77.11
2022-10-14T04:39:02.173Z,77.25
2022-10-14T04:41:28.682Z,77.97
2022-10-14T04:43:58.175Z,77.86
2022-10-14T04:46:33.123Z,79.22
2022-10-14T04:49:00.344Z,80.17
2022-10-14T04:51:31.856Z,79.70
2022-10-14T04:54:23.338Z,80.53
2022-10-14T04:56:54.947Z,80.74
2022-10-14T04:59:21.615Z,80.41
2022-10-14T05:02:01.156Z,80.49
2022-10-14T05:04:36.802Z,79.95
2022-10-14T05:07:03.597Z,79.37
2022-10-14T05:09:31.012Z,78.87
2022-10-14T05:11:58.398Z,79.35
2022-10-14T05:14:34.863Z,79.39
2022-10-14T05:17:14.587Z,78.95
2022-10-14T05:19:41.322Z,78.80
2022-10-14T05:22:08.034Z,79.79
2022-10-14T05:24:39.514Z,79.83
2022-10-14T05:27:07.308Z,79.72
2022-10-14T05:29:34.656Z,79.55
2022-10-14T05:32:01.969Z,78.61
2022-10-14T05:34:36.590Z,78.84
2022-10-14T05:37:05.526Z,78.75
2022-10-14T05:39:39.312Z,78.54
2022-10-14T05:42:06.066Z,77.89
2022-10-14T05:44:34.897Z,77.95
2022-10-14T05:47:03.268Z,78.13
2022-10-14T05:49:29.823Z,78.07
2022-10-14T05:51:59.208Z,78.62
2022-10-14T05:54:28.383Z,78.42
2022-10-14T05:56:57.056Z,78.14
2022-10-14T05:59:24.369Z,78.05
2022-10-14T06:01:52.057Z,78.27
2022-10-14T06:04:20.362Z,77.92
2022-10-14T06:06:47.376Z,77.68
2022-10-14T06:09:15.272Z,77.54
2022-10-14T06:11:42.072Z,77.28
2022-10-14T06:14:08.906Z,77.68
2022-10-14T06:16:35.837Z,77.60
2022-10-14T06:19:05.147Z,77.55
2022-10-14T06:21:31.742Z,77.62
2022-10-14T06:23:58.288Z,77.71
2022-10-14T06:26:25.171Z,77.58
2022-10-14T06:28:51.801Z,78.08
2022-10-14T06:31:18.505Z,78.06
2022-10-14T06:33:45.136Z,77.86
2022-10-14T06:36:11.890Z,77.30
2022-10-14T06:38:38.602Z,76.84
2022-10-14T06:41:05.443Z,76.51
2022-10-14T06:43:33.316Z,76.79
2022-10-14T06:46:00.177Z,76.81
2022-10-14T06:48:27.054Z,77.13
2022-10-14T06:50:54.587Z,77.47
2022-10-14T06:53:21.121Z,77.39
2022-10-14T06:55:47.697Z,77.96
2022-10-14T06:58:14.421Z,77.91
2022-10-14T07:00:45.623Z,77.83
2022-10-14T07:03:14.446Z,78.33
2022-10-14T07:05:41.091Z,78.36
2022-10-14T07:08:11.467Z,78.39
2022-10-14T07:10:41.842Z,78.27
2022-10-14T07:13:08.545Z,77.59
2022-10-14T07:15:36.278Z,78.14
2022-10-14T07:18:04.263Z,78.36
2022-10-14T07:20:32.985Z,78.23
2022-10-14T07:22:59.552Z,78.40
2022-10-14T07:25:26.238Z,78.34
2022-10-14T07:27:53.190Z,79.71
2022-10-14T07:30:20.140Z,79.47
2022-10-14T07:32:46.729Z,79.73
2022-10-14T07:35:14.773Z,79.14
2022-10-14T07:37:41.436Z,79.42
2022-10-14T07:40:08.731Z,79.98
2022-10-14T07:42:35.271Z,80.36
2022-10-14T07:45:02.121Z,79.68
2022-10-14T07:47:28.628Z,79.50
2022-10-14T07:49:55.188Z,78.61
2022-10-14T07:52:22.416Z,77.86
2022-10-14T07:54:49.000Z,78.34
2022-10-14T07:57:15.589Z,79.81
2022-10-14T07:59:42.249Z,79.96
2022-10-14T08:02:11.635Z,79.15
2022-10-14T08:04:38.418Z,79.91
2022-10-14T08:07:05.126Z,81.38
2022-10-14T08:09:34.755Z,81.50
2022-10-14T08:12:01.268Z,81.19
2022-10-14T08:14:28.553Z,82.59
2022-10-14T08:16:55.101Z,82.75
2022-10-14T08:19:21.897Z,82.21
2022-10-14T08:21:48.475Z,83.76
2022-10-14T08:24:15.110Z,84.39
2022-10-14T08:26:51.112Z,84.50
2022-10-14T08:29:21.213Z,84.99
2022-10-14T08:31:47.961Z,85.07
2022-10-14T08:34:14.588Z,84.96
2022-10-14T08:36:41.322Z,86.57
2022-10-14T08:39:11.407Z,84.63
2022-10-14T08:42:16.028Z,84.85
2022-10-14T08:44:44.693Z,83.96
2022-10-14T08:47:16.383Z,82.61
2022-10-14T08:49:52.004Z,81.58
2022-10-14T08:52:37.400Z,81.74
2022-10-14T08:55:19.489Z,82.61
2022-10-14T08:57:58.059Z,82.10
2022-10-14T09:00:25.073Z,81.44
2022-10-14T09:02:52.533Z,81.32
2022-10-14T09:05:25.091Z,80.82
2022-10-14T09:07:54.870Z,80.18
2022-10-14T09:10:36.285Z,80.36
2022-10-14T09:13:09.170Z,81.30
2022-10-14T09:15:42.481Z,82.05
2022-10-14T09:18:22.803Z,81.72
2022-10-14T09:20:50.166Z,81.11
2022-10-14T09:23:19.849Z,80.92
2022-10-14T09:26:05.346Z,80.85
2022-10-14T09:28:37.441Z,80.78
2022-10-14T09:31:06.770Z,80.11
2022-10-14T09:33:37.090Z,80.21
2022-10-14T09:36:17.023Z,80.70
2022-10-14T09:38:47.107Z,79.69
2022-10-14T09:41:15.743Z,80.95
2022-10-14T09:44:19.348Z,80.23
2022-10-14T09:46:52.585Z,79.08
2022-10-14T09:49:27.029Z,80.47
2022-10-14T09:51:53.593Z,79.55
2022-10-14T09:54:25.359Z,78.63
2022-10-14T09:57:00.210Z,79.02
2022-10-14T09:59:28.250Z,77.52
2022-10-14T10:01:57.729Z,77.21
2022-10-14T10:04:31.646Z,77.78
2022-10-14T10:07:00.461Z,77.88
2022-10-14T10:09:27.300Z,76.77
2022-10-14T10:11:54.684Z,75.68
2022-10-14T10:14:28.727Z,75.37
2022-10-14T10:17:25.243Z,76.15
2022-10-14T10:20:09.186Z,75.24
2022-10-14T10:22:35.924Z,75.03
2022-10-14T10:25:02.395Z,75.14
2022-10-14T10:27:33.417Z,74.91
2022-10-14T10:30:14.518Z,77.46
2022-10-14T10:32:51.481Z,76.70
2022-10-14T10:35:56.130Z,75.74
2022-10-14T10:38:29.181Z,74.95
2022-10-14T10:41:20.453Z,75.30
2022-10-14T10:44:08.079Z,75.89
2022-10-14T10:46:52.845Z,74.81
2022-10-14T10:49:45.384Z,75.61
2022-10-14T10:52:17.478Z,76.80
2022-10-14T10:54:59.185Z,76.42
2022-10-14T10:57:38.022Z,75.11
2022-10-14T11:00:19.221Z,74.97
2022-10-14T11:02:48.907Z,75.64
2022-10-14T11:05:38.554Z,75.69
2022-10-14T11:08:13.920Z,74.94
2022-10-14T11:10:57.833Z,75.38
2022-10-14T11:13:46.997Z,74.56
2022-10-14T11:16:18.184Z,74.83
2022-10-14T11:19:01.706Z,73.98
2022-10-14T11:21:38.587Z,73.76
2022-10-14T11:24:22.901Z,74.95
2022-10-14T11:27:13.011Z,73.43
2022-10-14T11:29:51.997Z,73.86
2022-10-14T11:32:55.076Z,74.45
2022-10-14T11:35:37.063Z,74.33
2022-10-14T11:38:29.113Z,74.64
2022-10-14T11:41:07.651Z,74.92
2022-10-14T11:43:58.654Z,73.28
2022-10-14T11:46:34.541Z,73.81
2022-10-14T11:49:14.208Z,74.32
2022-10-14T11:51:48.477Z,72.84
2022-10-14T11:54:29.370Z,73.95
2022-10-14T11:57:08.177Z,73.33
2022-10-14T11:59:37.661Z,72.62
2022-10-14T12:02:14.230Z,72.30
2022-10-14T12:04:46.307Z,72.32
2022-10-14T12:07:18.426Z,72.77
2022-10-14T12:09:57.270Z,71.93
2022-10-14T12:12:28.976Z,72.39
2022-10-14T12:15:02.007Z,71.37
2022-10-14T12:17:31.464Z,71.78
2022-10-14T12:20:06.766Z,70.87
2022-10-14T12:22:33.655Z,70.84
2022-10-14T12:25:05.584Z,70.97
2022-10-14T12:27:32.815Z,72.17
2022-10-14T12:29:59.469Z,70.54
2022-10-14T12:32:28.049Z,70.88
2022-10-14T12:34:56.633Z,69.62
2022-10-14T12:37:31.618Z,69.35
2022-10-14T12:40:04.570Z,70.84
2022-10-14T12:42:47.656Z,69.35
2022-10-14T12:45:20.933Z,68.57
2022-10-14T12:48:05.329Z,69.17
2022-10-14T12:50:40.540Z,68.47
2022-10-14T12:53:19.043Z,68.09
2022-10-14T12:55:51.101Z,68.27
2022-10-14T12:58:31.002Z,67.87
2022-10-14T13:01:05.277Z,68.97
2022-10-14T13:03:40.322Z,69.68
2022-10-14T13:06:27.094Z,69.05
2022-10-14T13:09:11.904Z,70.02
2022-10-14T13:12:01.523Z,68.91
2022-10-14T13:14:30.572Z,69.52
2022-10-14T13:17:24.469Z,70.35
2022-10-14T13:19:52.537Z,69.35
2022-10-14T13:22:33.124Z,70.75
2022-10-14T13:25:07.368Z,69.55
2022-10-14T13:28:08.137Z,69.29
2022-10-14T13:30:52.177Z,69.20
2022-10-14T13:33:26.702Z,69.65
2022-10-14T13:36:11.047Z,70.50
2022-10-14T13:38:39.875Z,69.95
2022-10-14T13:41:15.120Z,69.17
2022-10-14T13:43:43.587Z,68.57
2022-10-14T13:46:19.770Z,69.06
2022-10-14T13:48:50.022Z,68.96
2022-10-14T13:51:35.615Z,68.30
2022-10-14T13:54:27.990Z,68.02
2022-10-14T14:02:44.595Z,67.36
2022-10-14T14:05:20.000Z,66.90
2022-10-14T14:10:39.353Z,67.87
2022-10-14T14:13:13.807Z,68.94
2022-10-14T14:15:40.505Z,69.33
2022-10-14T14:18:56.341Z,69.58
2022-10-14T14:21:30.980Z,70.28
2022-10-14T14:24:00.269Z,70.99
2022-10-14T14:26:34.403Z,70.68
2022-10-14T14:29:17.184Z,69.53
2022-10-14T14:32:06.594Z,71.18
2022-10-14T14:34:35.714Z,70.34
2022-10-14T14:37:25.124Z,70.45
2022-10-14T14:40:15.052Z,70.32
2022-10-14T14:42:43.694Z,70.58
2022-10-14T14:45:18.364Z,69.65
2022-10-14T14:47:47.601Z,69.46
2022-10-14T14:50:32.762Z,68.65
2022-10-14T14:53:20.940Z,68.14
2022-10-14T14:55:53.538Z,69.06
2022-10-14T14:58:26.352Z,70.42
2022-10-14T15:00:53.362Z,70.18
2022-10-14T15:03:20.599Z,70.13
2022-10-14T15:05:52.779Z,69.91
2022-10-14T15:08:25.199Z,70.87
2022-10-14T15:10:55.467Z,71.76
2022-10-14T15:13:40.023Z,71.10
2022-10-14T15:16:07.145Z,69.50
2022-10-14T15:18:33.867Z,69.89
2022-10-14T15:21:13.138Z,70.33
2022-10-14T15:23:42.429Z,69.89
2022-10-14T15:26:21.421Z,70.29
2022-10-14T15:29:08.165Z,69.53
2022-10-14T15:31:36.199Z,70.31
2022-10-14T15:34:03.877Z,70.69
2022-10-14T15:36:33.199Z,70.67
2022-10-14T15:39:00.207Z,70.56
2022-10-14T15:41:28.328Z,70.25
2022-10-14T15:43:54.915Z,69.63
2022-10-14T15:46:22.802Z,69.61
2022-10-14T15:48:51.983Z,69.94
2022-10-14T15:51:21.861Z,70.46
2022-10-14T15:53:48.702Z,70.58
2022-10-14T15:56:15.554Z,69.43
2022-10-14T15:58:42.054Z,69.09
2022-10-14T16:01:15.686Z,69.45
2022-10-14T16:03:42.278Z,68.71
2022-10-14T16:06:10.189Z,68.29
2022-10-14T16:08:38.893Z,68.21
2022-10-14T16:11:26.733Z,67.61
2022-10-14T16:13:53.563Z,68.89
2022-10-14T16:16:33.848Z,68.83
2022-10-14T16:19:00.458Z,69.03
2022-10-14T16:21:26.940Z,70.10
2022-10-14T16:23:53.532Z,70.29
2022-10-14T16:26:20.116Z,72.10
2022-10-14T16:28:46.765Z,73.07
2022-10-14T16:31:16.898Z,74.75
2022-10-14T16:33:45.699Z,75.41
2022-10-14T16:36:14.823Z,77.14
2022-10-14T16:38:41.434Z,77.37
2022-10-14T16:41:10.187Z,77.21
2022-10-14T16:43:37.289Z,78.51
2022-10-14T16:46:05.424Z,79.51
2022-10-14T16:48:33.375Z,78.66
2022-10-14T16:51:00.260Z,77.62
2022-10-14T16:53:28.862Z,76.73
2022-10-14T16:55:57.387Z,76.69
2022-10-14T16:58:23.995Z,75.84
2022-10-14T17:00:50.807Z,76.21
2022-10-14T17:03:18.748Z,76.71
2022-10-14T17:05:47.251Z,76.44
2022-10-14T17:08:16.672Z,76.50
2022-10-14T17:10:47.159Z,76.37
2022-10-14T17:13:14.112Z,75.97
2022-10-14T17:15:40.606Z,76.23
2022-10-14T17:18:09.954Z,75.81
2022-10-14T17:20:40.382Z,75.24
2022-10-14T17:23:10.258Z,75.34
2022-10-14T17:25:40.923Z,75.18
2022-10-14T17:28:07.710Z,73.89
2022-10-14T17:30:36.989Z,74.22
2022-10-14T17:33:03.885Z,75.29
2022-10-14T17:35:30.398Z,74.36
2022-10-14T17:37:57.858Z,74.89
2022-10-14T17:40:26.229Z,75.77
2022-10-14T17:42:53.521Z,76.07
2022-10-14T17:45:21.793Z,75.19
2022-10-14T17:47:48.465Z,76.06
2022-10-14T17:50:15.028Z,77.38
2022-10-14T17:52:41.618Z,77.64
2022-10-14T17:55:08.752Z,78.94
2022-10-14T17:57:35.360Z,78.30
2022-10-14T18:00:01.986Z,78.20
2022-10-14T18:02:38.902Z,78.61
2022-10-14T18:05:07.369Z,78.23
2022-10-14T18:07:36.775Z,78.21
2022-10-14T18:10:04.894Z,77.10
2022-10-14T18:12:33.396Z,78.92
2022-10-14T18:15:01.087Z,79.58
2022-10-14T18:17:27.970Z,78.89
2022-10-14T18:19:57.951Z,79.52
2022-10-14T18:22:25.903Z,80.30
2022-10-14T18:24:53.670Z,80.94
2022-10-14T18:27:24.809Z,80.32
2022-10-14T18:29:51.830Z,81.05
2022-10-14T18:32:19.023Z,80.96
2022-10-14T18:34:49.771Z,79.68
2022-10-14T18:37:17.692Z,82.18
2022-10-14T18:39:45.810Z,82.26
2022-10-14T18:42:17.147Z,82.76
2022-10-14T18:44:48.676Z,83.32
2022-10-14T18:47:15.490Z,82.29
2022-10-14T18:49:42.933Z,81.75
2022-10-14T18:52:09.742Z,81.59
2022-10-14T18:54:37.052Z,81.67
2022-10-14T18:57:03.643Z,82.00
2022-10-14T18:59:30.405Z,81.96
2022-10-14T19:01:57.362Z,82.59
2022-10-14T19:04:26.062Z,82.20
2022-10-14T19:06:57.172Z,82.73
2022-10-14T19:09:23.760Z,81.74
2022-10-14T19:11:51.416Z,83.02
2022-10-14T19:14:18.226Z,83.17
2022-10-14T19:16:45.385Z,82.56
2022-10-14T19:19:14.756Z,82.22
2022-10-14T19:21:42.530Z,80.64
2022-10-14T19:24:11.863Z,80.91
2022-10-14T19:26:44.287Z,81.54
2022-10-14T19:29:14.015Z,81.90
2022-10-14T19:31:42.058Z,82.40
2022-10-14T19:34:11.712Z,83.98
2022-10-14T19:36:40.540Z,83.61
2022-10-14T19:39:09.001Z,84.03
2022-10-14T19:41:36.667Z,83.03
2022-10-14T19:44:03.231Z,83.03
2022-10-14T19:46:30.200Z,82.39
2022-10-14T19:49:01.335Z,82.76
2022-10-14T19:51:28.876Z,83.98
2022-10-14T19:53:56.238Z,85.20
2022-10-14T19:56:23.560Z,84.40
2022-10-14T19:58:55.760Z,84.62
2022-10-14T20:01:24.936Z,84.35
2022-10-14T20:03:52.510Z,84.15
2022-10-14T20:06:20.778Z,83.76
2022-10-14T20:08:47.465Z,83.46
2022-10-14T20:11:16.235Z,82.84
2022-10-14T20:13:45.860Z,82.75
2022-10-14T20:16:13.343Z,82.94
2022-10-14T20:18:40.351Z,83.80
2022-10-14T20:21:11.399Z,82.63
2022-10-14T20:23:38.545Z,82.68
2022-10-14T20:26:07.962Z,82.05
2022-10-14T20:28:36.743Z,82.47
2022-10-14T20:31:06.386Z,82.92
2022-10-14T20:33:33.515Z,83.25
2022-10-14T20:36:10.742Z,83.31
2022-10-14T20:38:38.363Z,82.97
2022-10-14T20:41:17.128Z,82.30
2022-10-14T20:43:46.220Z,82.29
2022-10-14T20:46:13.096Z,81.00
2022-10-14T20:48:40.049Z,80.83
2022-10-14T20:51:08.365Z,80.58
2022-10-14T20:53:35.171Z,80.21
2022-10-14T20:56:12.615Z,80.39
2022-10-14T20:58:39.555Z,79.86
2022-10-14T21:01:17.111Z,79.60
2022-10-14T21:03:48.035Z,79.54
2022-10-14T21:06:17.945Z,79.86
2022-10-14T21:08:44.783Z,81.06
2022-10-14T21:11:15.281Z,80.94
2022-10-14T21:13:50.919Z,80.64
2022-10-14T21:16:20.311Z,80.36
2022-10-14T21:18:55.228Z,81.09
2022-10-14T21:21:27.500Z,81.23
2022-10-14T21:23:54.941Z,81.01
2022-10-14T21:26:21.954Z,81.02
2022-10-14T21:28:48.596Z,80.48
2022-10-14T21:31:18.728Z,80.61
2022-10-14T21:33:47.507Z,80.25
2022-10-14T21:36:16.250Z,79.75
2022-10-14T21:38:42.967Z,79.53
2022-10-14T21:41:09.613Z,80.26
2022-10-14T21:43:37.857Z,81.47
2022-10-14T21:46:11.303Z,82.40
2022-10-14T21:48:38.527Z,82.21
2022-10-14T21:51:08.981Z,82.10
2022-10-14T21:53:35.916Z,81.17
2022-10-14T21:56:03.441Z,81.29
2022-10-14T21:58:31.241Z,81.76
2022-10-14T22:01:07.147Z,81.06
2022-10-14T22:03:34.659Z,82.15
2022-10-14T22:08:39.968Z,82.10
2022-10-14T22:11:26.792Z,81.55
2022-10-14T22:13:54.863Z,82.71
2022-10-14T22:16:22.309Z,84.03
2022-10-14T22:18:50.809Z,84.69
2022-10-14T22:21:21.788Z,83.18
2022-10-14T22:23:49.112Z,82.19
2022-10-14T22:26:18.535Z,82.61
2022-10-14T22:28:45.641Z,82.38
2022-10-14T22:31:18.035Z,83.52
2022-10-14T22:33:45.487Z,84.85
2022-10-14T22:36:18.118Z,84.44
2022-10-14T22:38:47.895Z,83.81
2022-10-14T22:41:16.270Z,83.12
2022-10-14T22:43:50.820Z,85.67
2022-10-14T22:46:19.250Z,85.55
2022-10-14T22:48:46.721Z,85.79
2022-10-14T22:51:15.536Z,86.13
2022-10-14T22:53:43.457Z,86.07
2022-10-14T22:56:15.599Z,85.82
2022-10-14T22:58:42.670Z,85.04
2022-10-14T23:01:12.337Z,84.68
2022-10-14T23:03:39.708Z,83.82
2022-10-14T23:06:08.981Z,83.69
2022-10-14T23:08:36.788Z,83.46
2022-10-14T23:11:04.997Z,82.90
2022-10-14T23:13:32.490Z,82.72
2022-10-14T23:16:00.900Z,82.46
2022-10-14T23:18:29.712Z,81.92
2022-10-14T23:20:56.250Z,81.73
2022-10-14T23:23:23.029Z,81.56
2022-10-14T23:25:49.599Z,81.44
2022-10-14T23:28:16.607Z,81.10
2022-10-14T23:30:43.231Z,80.91
2022-10-14T23:33:09.954Z,80.54
2022-10-14T23:35:37.611Z,80.80
2022-10-14T23:38:04.543Z,80.53
2022-10-14T23:40:31.074Z,80.08
2022-10-14T23:42:58.009Z,79.92
2022-10-14T23:45:24.554Z,79.54
2022-10-14T23:47:51.123Z,79.86
2022-10-14T23:50:17.764Z,79.94
2022-10-14T23:52:44.590Z,79.93
2022-10-14T23:55:11.460Z,79.98
2022-10-14T23:57:38.028Z,79.88
